Time,TemperatureF,DewpointF,PressureIn,WindDirection,WindDirectionDegrees,WindSpeedMPH,WindSpeedGustMPH,Humidity,HourlyPrecipIn,Conditions,Clouds,dailyrainin,SoftwareType,DateUTC
2013-09-04 00:00:00,77.0,-99.9,-100.00,West,262,20.0,28.0,-999,-99.99,,,-99.99,,2013-09-04 06:00:00,
2013-09-04 00:42:00,77.0,-99.9,-100.00,West,262,20.0,28.0,-999,-99.99,,,-99.99,,2013-09-04 06:42:00,
2013-09-04 00:52:00,77.0,-99.9,-100.00,West,262,20.0,28.0,-999,-99.99,,,-99.99,,2013-09-04 06:52:00,
2013-09-04 01:00:00,76.0,-99.9,-100.00,West,270,12.0,16.0,-999,-99.99,,,-99.99,,2013-09-04 07:00:00,
2013-09-04 01:42:00,76.0,-99.9,-100.00,West,270,12.0,16.0,-999,-99.99,,,-99.99,,2013-09-04 07:42:00,
2013-09-04 01:52:00,76.0,-99.9,-100.00,West,270,12.0,16.0,-999,-99.99,,,-99.99,,2013-09-04 07:52:00,
2013-09-04 02:00:00,76.0,-99.9,-100.00,SSW,193,15.0,18.0,-999,-99.99,,,-99.99,,2013-09-04 08:00:00,
2013-09-04 02:43:00,76.0,-99.9,-100.00,SSW,193,15.0,18.0,-999,-99.99,,,-99.99,,2013-09-04 08:43:00,
2013-09-04 02:52:00,76.0,-99.9,-100.00,SSW,193,15.0,18.0,-999,-99.99,,,-99.99,,2013-09-04 08:52:00,
2013-09-04 03:00:00,72.0,-99.9,-100.00,South,186,13.0,17.0,-999,-99.99,,,-99.99,,2013-09-04 09:00:00,
2013-09-04 03:43:00,72.0,-99.9,-100.00,South,186,13.0,17.0,-999,-99.99,,,-99.99,,2013-09-04 09:43:00,
2013-09-04 03:53:00,72.0,-99.9,-100.00,South,186,13.0,17.0,-999,-99.99,,,-99.99,,2013-09-04 09:53:00,
2013-09-04 04:00:00,70.0,-99.9,-100.00,SW,235,8.0,9.0,-999,-99.99,,,-99.99,,2013-09-04 10:00:00,
2013-09-04 04:42:00,70.0,-99.9,-100.00,SW,235,8.0,9.0,-999,-99.99,,,-99.99,,2013-09-04 10:42:00,
2013-09-04 04:53:00,70.0,-99.9,-100.00,SW,235,8.0,9.0,-999,-99.99,,,-99.99,,2013-09-04 10:53:00,
2013-09-04 05:00:00,67.0,-99.9,-100.00,SW,233,7.0,9.0,-999,-99.99,,,-99.99,,2013-09-04 11:00:00,
2013-09-04 05:42:00,67.0,-99.9,-100.00,SW,233,7.0,9.0,-999,-99.99,,,-99.99,,2013-09-04 11:42:00,
2013-09-04 05:52:00,67.0,-99.9,-100.00,SW,233,7.0,9.0,-999,-99.99,,,-99.99,,2013-09-04 11:52:00,
2013-09-04 06:00:00,64.0,-99.9,-100.00,WSW,238,6.0,7.0,-999,-99.99,,,-99.99,,2013-09-04 12:00:00,
2013-09-04 06:42:00,64.0,-99.9,-100.00,WSW,238,6.0,7.0,-999,-99.99,,,-99.99,,2013-09-04 12:42:00,
2013-09-04 06:52:00,64.0,-99.9,-100.00,WSW,238,6.0,7.0,-999,-99.99,,,-99.99,,2013-09-04 12:52:00,
2013-09-04 07:00:00,64.0,-99.9,-100.00,WSW,248,5.0,8.0,-999,-99.99,,,-99.99,,2013-09-04 13:00:00,
2013-09-04 07:42:00,64.0,-99.9,-100.00,WSW,248,5.0,8.0,-999,-99.99,,,-99.99,,2013-09-04 13:42:00,
2013-09-04 07:52:00,64.0,-99.9,-100.00,WSW,248,5.0,8.0,-999,-99.99,,,-99.99,,2013-09-04 13:52:00,
2013-09-04 11:00:00,79.0,-99.9,-100.00,NNW,347,6.0,9.0,-999,-99.99,,,-99.99,,2013-09-04 17:00:00,
2013-09-04 11:53:00,79.0,-99.9,-100.00,NNW,347,6.0,9.0,-999,-99.99,,,-99.99,,2013-09-04 17:53:00,
2013-09-04 12:00:00,82.0,-99.9,-100.00,North,10,4.0,6.0,-999,-99.99,,,-99.99,,2013-09-04 18:00:00,
2013-09-04 12:42:00,82.0,-99.9,-100.00,North,10,4.0,6.0,-999,-99.99,,,-99.99,,2013-09-04 18:42:00,
2013-09-04 12:52:00,82.0,-99.9,-100.00,North,10,4.0,6.0,-999,-99.99,,,-99.99,,2013-09-04 18:52:00,
2013-09-04 13:00:00,84.0,-99.9,-100.00,SSE,151,1.0,2.0,-999,-99.99,,,-99.99,,2013-09-04 19:00:00,
2013-09-04 13:42:00,84.0,-99.9,-100.00,SSE,151,1.0,2.0,-999,-99.99,,,-99.99,,2013-09-04 19:42:00,
2013-09-04 13:53:00,84.0,-99.9,-100.00,SSE,151,1.0,2.0,-999,-99.99,,,-99.99,,2013-09-04 19:53:00,
2013-09-04 14:00:00,88.0,-99.9,-100.00,ESE,120,7.0,9.0,-999,-99.99,,,-99.99,,2013-09-04 20:00:00,
2013-09-04 14:43:00,88.0,-99.9,-100.00,ESE,120,7.0,9.0,-999,-99.99,,,-99.99,,2013-09-04 20:43:00,
2013-09-04 14:54:00,88.0,-99.9,-100.00,ESE,120,7.0,9.0,-999,-99.99,,,-99.99,,2013-09-04 20:54:00,
2013-09-04 15:00:00,86.0,-99.9,-100.00,ENE,76,3.0,5.0,-999,-99.99,,,-99.99,,2013-09-04 21:00:00,
2013-09-04 15:44:00,86.0,-99.9,-100.00,ENE,76,3.0,5.0,-999,-99.99,,,-99.99,,2013-09-04 21:44:00,
2013-09-04 15:54:00,86.0,-99.9,-100.00,ENE,76,3.0,5.0,-999,-99.99,,,-99.99,,2013-09-04 21:54:00,
2013-09-04 16:00:00,86.0,-99.9,-100.00,SSE,166,4.0,6.0,-999,-99.99,,,-99.99,,2013-09-04 22:00:00,
2013-09-04 16:44:00,86.0,-99.9,-100.00,SSE,166,4.0,6.0,-999,-99.99,,,-99.99,,2013-09-04 22:44:00,
2013-09-04 16:55:00,86.0,-99.9,-100.00,SSE,166,4.0,6.0,-999,-99.99,,,-99.99,,2013-09-04 22:55:00,
2013-09-04 18:00:00,81.0,-99.9,-100.00,NNE,22,12.0,14.0,-999,-99.99,,,-99.99,,2013-09-05 00:00:00,
2013-09-04 18:22:00,81.0,-99.9,-100.00,NNE,22,12.0,14.0,-999,-99.99,,,-99.99,,2013-09-05 00:22:00,
2013-09-04 18:32:00,81.0,-99.9,-100.00,NNE,22,12.0,14.0,-999,-99.99,,,-99.99,,2013-09-05 00:32:00,
2013-09-04 18:43:00,81.0,-99.9,-100.00,NNE,22,12.0,14.0,-999,-99.99,,,-99.99,,2013-09-05 00:43:00,
2013-09-04 18:52:00,81.0,-99.9,-100.00,NNE,22,12.0,14.0,-999,-99.99,,,-99.99,,2013-09-05 00:52:00,
2013-09-04 19:00:00,76.0,-99.9,-100.00,NE,40,5.0,7.0,-999,-99.99,,,-99.99,,2013-09-05 01:00:00,
2013-09-04 19:42:00,76.0,-99.9,-100.00,NE,40,5.0,7.0,-999,-99.99,,,-99.99,,2013-09-05 01:42:00,
2013-09-04 19:52:00,76.0,-99.9,-100.00,NE,40,5.0,7.0,-999,-99.99,,,-99.99,,2013-09-05 01:52:00,
2013-09-04 20:00:00,74.0,-99.9,-100.00,West,260,5.0,6.0,-999,-99.99,,,-99.99,,2013-09-05 02:00:00,
2013-09-04 20:52:00,74.0,-99.9,-100.00,West,260,5.0,6.0,-999,-99.99,,,-99.99,,2013-09-05 02:52:00,
2013-09-04 21:00:00,71.0,-99.9,-100.00,WSW,241,5.0,5.0,-999,-99.99,,,-99.99,,2013-09-05 03:00:00,
2013-09-04 21:45:00,71.0,-99.9,-100.00,WSW,241,5.0,5.0,-999,-99.99,,,-99.99,,2013-09-05 03:45:00,
2013-09-04 21:54:00,71.0,-99.9,-100.00,WSW,241,5.0,5.0,-999,-99.99,,,-99.99,,2013-09-05 03:54:00,
2013-09-04 22:00:00,70.0,-99.9,-100.00,SW,231,7.0,9.0,-999,-99.99,,,-99.99,,2013-09-05 04:00:00,
2013-09-04 22:44:00,70.0,-99.9,-100.00,SW,231,7.0,9.0,-999,-99.99,,,-99.99,,2013-09-05 04:44:00,
2013-09-04 22:54:00,70.0,-99.9,-100.00,SW,231,7.0,9.0,-999,-99.99,,,-99.99,,2013-09-05 04:54:00,